• Join FlightAware (Why Join?)
  • Login
  • US Flag 
12:10AM EDT


 

Airport Tracker/Info


-or-


 

Live Flight TrackerFlight Track Log ✈ FDX60 ✈ 14-Apr-2013 ✈ RJBB / KIX - KMEM

Flight Track Log - Related Links

Times and Time Zones

All times are in EDT time to prevent confusion due to time zone crossing. See the FDX60 flight status page for this flight to view local times or setup timezone preferences in your user account.

Time Position Orientation Groundspeed Altitude Reporting Facility
EDT Latitude Longitude Course Direction KTS MPH feet Rate Location/Type
03:56PM 34.4100 135.1910 292° West 201 231 2,300  Level FlightAware
03:56PM 34.4170 135.1750 298° West 202 232 3,000 2,400 Climbing FlightAware
03:56PM 34.4210 135.1580 286° West 202 232 3,500 1,440 Climbing FlightAware
03:57PM 34.4170 135.1210 263° West 240 276 4,100 1,800 Climbing FlightAware
03:57PM 34.4130 135.0870 262° West 249 287 5,200 2,700 Climbing FlightAware
03:58PM 34.4110 135.0680 263° West 252 290 5,900 2,640 Climbing FlightAware
03:58PM 34.4060 135.0230 262° West 262 302 7,200 2,400 Climbing FlightAware
03:58PM 34.4010 135.0100 245° Southwest 266 306 7,500 2,400 Climbing FlightAware
03:59PM 34.3850 134.9950 218° Southwest 276 318 8,200 2,580 Climbing FlightAware
03:59PM 34.3670 134.9860 202° Southwest 282 325 8,800 2,400 Climbing FlightAware
03:59PM 34.3500 134.9860 180° South 296 341 9,400 2,580 Climbing FlightAware
04:00PM 34.2930 135.0010 168° South 305 351 11,200 2,640 Climbing FlightAware
04:00PM 34.2290 135.0200 166° South 309 356 13,200 2,160 Climbing FlightAware
04:01PM 34.1710 135.0360 167° South 338 389 14,300 1,260 Climbing FlightAware
04:02PM 34.0970 135.0560 167° South 383 441 15,000 1,380 Climbing FlightAware
04:03PM 34.0260 135.0750 167° South 401 461 16,300 2,220 Climbing FlightAware
04:03PM 33.9530 135.0950 167° South 405 466 18,000 2,280 Climbing FlightAware
04:04PM 33.8800 135.1510 148° Southeast 439 505 19,600 1,920 Climbing FlightAware
04:05PM 33.8480 135.2440 112° Southeast 471 542 20,800 1,680 Climbing FlightAware
04:05PM 33.8640 135.3470 79° East 488 562 21,900 1,620 Climbing FlightAware
04:06PM 33.9100 135.4590 64° Northeast 503 579 23,100 1,680 Climbing FlightAware
04:07PM 33.9530 135.5610 63° Northeast 512 589 24,300 1,620 Climbing FlightAware
04:07PM 33.9980 135.6790 65° Northeast 521 600 25,400 1,440 Climbing FlightAware
04:08PM 34.0370 135.7850 66° East 531 611 26,400 1,320 Climbing FlightAware
04:09PM 34.0770 135.8950 66° East 542 624 27,200 1,260 Climbing FlightAware
04:10PM 34.1240 136.0200 66° East 550 633 28,200 1,200 Climbing FlightAware
04:10PM 34.1660 136.1330 66° East 560 644 28,900 960 Climbing FlightAware
04:11PM 34.2140 136.2630 66° East 571 657 29,600 1,380 Climbing FlightAware
04:12PM 34.2560 136.3780 66° East 566 651 30,900 1,020 Climbing FlightAware
04:12PM 34.3010 136.5000 66° East 573 659 31,000 60 Climbing FlightAware
04:13PM 34.3490 136.6300 66° East 570 656 31,000  Level FlightAware
04:14PM 34.3920 136.7490 66° East 564 649 31,000  Level FlightAware
04:14PM 34.4390 136.8780 66° East 565 650 31,000  Level FlightAware
04:15PM 34.4800 136.9910 66° East 567 652 31,000  Level FlightAware
04:16PM 34.5230 137.1110 66° East 568 654 31,000  Level FlightAware
04:17PM 34.5700 137.2430 67° East 568 654 31,000  Level FlightAware
04:17PM 34.6120 137.3610 67° East 568 654 31,000  Level FlightAware
04:18PM 34.6590 137.4920 66° East 567 652 31,000  Level FlightAware
04:19PM 34.7000 137.6080 67° East 568 654 31,000  Level FlightAware
04:19PM 34.7420 137.7260 67° East 568 654 31,000  Level FlightAware
04:20PM 34.7880 137.8580 67° East 565 650 31,000  Level FlightAware
04:21PM 34.8300 137.9760 67° East 566 651 31,000  Level FlightAware
04:21PM 34.8760 138.1080 67° East 564 649 31,000  Level FlightAware
04:22PM 34.9160 138.2220 67° East 565 650 31,000  Level FlightAware
04:23PM 34.9580 138.3440 67° East 564 649 31,000  Level FlightAware
04:24PM 35.0030 138.4740 67° East 564 649 31,000  Level FlightAware
04:24PM 35.0440 138.5940 67° East 566 651 31,000  Level FlightAware
04:25PM 35.0850 138.7130 67° East 566 651 31,000  Level FlightAware
04:26PM 35.1300 138.8470 68° East 566 651 31,000  Level FlightAware
04:26PM 35.1710 138.9660 67° East 564 649 31,000  Level FlightAware
04:27PM 35.2150 139.0970 68° East 566 651 31,000  Level FlightAware
04:28PM 35.2560 139.2180 67° East 566 651 31,000  Level FlightAware
04:28PM 35.3010 139.3530 68° East 567 652 31,000  Level FlightAware
04:29PM 35.3400 139.4710 68° East 566 651 31,000  Level FlightAware
04:30PM 35.3800 139.5910 68° East 568 654 31,000  Level FlightAware
04:31PM 35.4240 139.7240 68° East 572 658 31,000  Level FlightAware
04:31PM 35.4540 139.8150 68° East 570 656 31,000  Level FlightAware
04:32PM 35.4930 139.9340 68° East 570 656 31,000  Level FlightAware
04:32PM 35.5340 140.0580 68° East 573 659 31,000  Level FlightAware
04:33PM 35.5790 140.1950 68° East 572 658 31,000  Level FlightAware
04:34PM 35.6170 140.3140 69° East 572 658 31,000  Level FlightAware
04:35PM 35.6700 140.4760 68° East 569 655 31,000  Level FlightAware
04:35PM 35.7150 140.6180 69° East 568 654 31,000  Level FlightAware
04:36PM 35.7530 140.7360 68° East 569 655 31,000  Level FlightAware
04:37PM 35.7860 140.8410 69° East 569 655 31,000 480 Level FlightAware
04:39PM 35.9922 141.0517 40° Northeast  Level Estimated
04:40PM 36.1066 141.1693 40° Northeast  Level Estimated
04:40PM 35.9700 141.4220 40° Northeast 564 649 33,000  Level FlightAware
04:42PM 36.0810 141.7810 69° East 566 651 33,000  Level FlightAware
04:43PM 36.1200 141.9080 69° East 566 651 33,000  Level FlightAware
04:43PM 36.1600 142.0390 69° East 566 651 33,000  Level FlightAware
04:44PM 36.1990 142.1670 69° East 566 651 33,000  Level FlightAware
04:45PM 36.2380 142.2950 69° East 566 651 33,000  Level FlightAware
04:45PM 36.2760 142.4230 70° East 565 650 33,000  Level FlightAware
04:46PM 36.3090 142.5310 69° East 566 651 33,000  Level FlightAware
04:47PM 36.3490 142.6670 70° East 567 652 33,000  Level FlightAware
04:48PM 36.3890 142.7990 69° East 568 654 33,000  Level FlightAware
04:48PM 36.4220 142.9100 70° East 570 656 33,000  Level FlightAware
04:49PM 36.4620 143.0470 70° East 568 654 33,000  Level FlightAware
04:50PM 36.4990 143.1730 70° East 568 654 33,000  Level FlightAware
04:50PM 36.5290 143.2770 70° East 568 654 33,000  Level FlightAware
04:51PM 36.5600 143.3820 70° East 568 654 33,000  Level FlightAware
04:52PM 36.5910 143.4860 70° East 568 654 33,000  Level FlightAware
04:52PM 36.6210 143.5910 70° East 568 654 33,000  Level FlightAware
04:53PM 36.6590 143.7220 70° East 568 654 33,000  Level FlightAware
04:54PM 36.6900 143.8260 70° East 568 654 33,000  Level FlightAware
04:55PM 36.7200 143.9310 70° East 568 654 33,000  Level FlightAware
04:55PM 36.7510 144.0360 70° East 568 654 33,000  Level FlightAware
04:56PM 36.7810 144.1410 70° East 568 654 33,000  Level FlightAware
04:57PM 36.8200 144.2720 70° East 568 654 33,000  Level FlightAware
04:57PM 36.8500 144.3770 70° East 568 654 33,000  Level FlightAware
04:58PM 36.8810 144.4810 70° East 568 654 33,000  Level FlightAware
04:59PM 36.9110 144.5860 70° East 568 654 33,000  Level FlightAware
05:01PM 37.1101 144.8101 42° Northeast  Level Estimated
05:02PM 37.2206 144.9351 42° Northeast  Level Estimated
05:03PM 37.3309 145.0604 42° Northeast  Level Estimated
05:04PM 37.4411 145.1862 42° Northeast  Level Estimated
05:05PM 37.5512 145.3123 42° Northeast  Level Estimated
05:06PM 37.6611 145.4387 42° Northeast  Level Estimated
05:07PM 37.7709 145.5656 42° Northeast  Level Estimated
05:08PM 37.8805 145.6928 42° Northeast  Level Estimated
05:09PM 37.9900 145.8204 43° Northeast  Level Estimated
05:10PM 38.0994 145.9484 43° Northeast  Level Estimated
05:11PM 38.2086 146.0767 43° Northeast  Level Estimated
05:12PM 38.3177 146.2055 43° Northeast  Level Estimated
05:13PM 38.4267 146.3346 43° Northeast  Level Estimated
05:14PM 38.5355 146.4642 43° Northeast  Level Estimated
05:15PM 38.6441 146.5941 43° Northeast  Level Estimated
05:16PM 38.7527 146.7244 43° Northeast  Level Estimated
05:17PM 38.8610 146.8551 43° Northeast  Level Estimated
05:18PM 38.9693 146.9862 43° Northeast  Level Estimated
05:19PM 39.0773 147.1177 43° Northeast  Level Estimated
05:20PM 39.1853 147.2496 43° Northeast  Level Estimated
05:21PM 39.2931 147.3820 44° Northeast  Level Estimated
05:22PM 39.4007 147.5147 44° Northeast  Level Estimated
05:23PM 39.5082 147.6478 44° Northeast  Level Estimated
05:24PM 39.6155 147.7814 44° Northeast  Level Estimated
05:25PM 39.7227 147.9154 44° Northeast  Level Estimated
05:26PM 39.8297 148.0497 44° Northeast  Level Estimated
05:27PM 39.9366 148.1845 44° Northeast  Level Estimated
05:28PM 40.0433 148.3198 44° Northeast  Level Estimated
05:29PM 40.1499 148.4554 44° Northeast  Level Estimated
05:30PM 40.2563 148.5915 44° Northeast  Level Estimated
05:31PM 40.3625 148.7280 44° Northeast  Level Estimated
05:32PM 40.4686 148.8649 44° Northeast  Level Estimated
05:33PM 40.5745 149.0023 45° Northeast  Level Estimated
05:34PM 40.6803 149.1401 45° Northeast  Level Estimated
05:35PM 40.7859 149.2783 45° Northeast  Level Estimated
05:36PM 40.8913 149.4170 45° Northeast  Level Estimated
05:37PM 40.9965 149.5561 45° Northeast  Level Estimated
05:38PM 41.1016 149.6957 45° Northeast  Level Estimated
05:39PM 41.2065 149.8357 45° Northeast  Level Estimated
05:40PM 41.3113 149.9761 45° Northeast  Level Estimated
05:41PM 41.4159 150.1171 45° Northeast  Level Estimated
05:42PM 41.5203 150.2584 45° Northeast  Level Estimated
05:43PM 41.6245 150.4002 45° Northeast  Level Estimated
05:44PM 41.7285 150.5425 46° Northeast  Level Estimated
05:45PM 41.8324 150.6853 46° Northeast  Level Estimated
05:46PM 41.9361 150.8285 46° Northeast  Level Estimated
05:47PM 42.0396 150.9721 46° Northeast  Level Estimated
05:48PM 42.1430 151.1163 46° Northeast  Level Estimated
05:49PM 42.2461 151.2609 46° Northeast  Level Estimated
05:50PM 42.3491 151.4060 46° Northeast  Level Estimated
05:51PM 42.4519 151.5515 46° Northeast  Level Estimated
05:52PM 42.5545 151.6976 46° Northeast  Level Estimated
05:53PM 42.6570 151.8441 46° Northeast  Level Estimated
05:54PM 42.7592 151.9911 47° Northeast  Level Estimated
05:55PM 42.8613 152.1386 47° Northeast  Level Estimated
05:56PM 42.9631 152.2866 47° Northeast  Level Estimated
05:57PM 43.0648 152.4350 47° Northeast  Level Estimated
05:58PM 43.1663 152.5840 47° Northeast  Level Estimated
05:59PM 43.2675 152.7334 47° Northeast  Level Estimated
06:00PM 43.3686 152.8834 47° Northeast  Level Estimated
06:01PM 43.4695 153.0338 47° Northeast  Level Estimated
06:02PM 43.5702 153.1848 47° Northeast  Level Estimated
06:03PM 43.6707 153.3362 47° Northeast  Level Estimated
06:04PM 43.7710 153.4882 48° Northeast  Level Estimated
06:05PM 43.8711 153.6407 48° Northeast  Level Estimated
06:06PM 43.9710 153.7937 48° Northeast  Level Estimated
06:07PM 44.0706 153.9472 48° Northeast  Level Estimated
06:08PM 44.1701 154.1012 48° Northeast  Level Estimated
06:09PM 44.2694 154.2558 48° Northeast  Level Estimated
06:10PM 44.3685 154.4108 48° Northeast  Level Estimated
06:11PM 44.4673 154.5664 48° Northeast  Level Estimated
06:12PM 44.5659 154.7225 48° Northeast  Level Estimated
06:13PM 44.6644 154.8792 49° Northeast  Level Estimated
06:14PM 44.7626 155.0363 49° Northeast  Level Estimated
06:15PM 44.8606 155.1941 49° Northeast  Level Estimated
06:16PM 44.9583 155.3523 49° Northeast  Level Estimated
06:17PM 45.0559 155.5111 49° Northeast  Level Estimated
06:18PM 45.1532 155.6704 49° Northeast  Level Estimated
06:19PM 45.2503 155.8303 49° Northeast  Level Estimated
06:20PM 45.3472 155.9907 49° Northeast  Level Estimated
06:21PM 45.4439 156.1517 49° Northeast  Level Estimated
06:22PM 45.5403 156.3132 50° Northeast  Level Estimated
06:23PM 45.6365 156.4753 50° Northeast  Level Estimated
06:24PM 45.7325 156.6379 50° Northeast  Level Estimated
06:25PM 45.8283 156.8011 50° Northeast  Level Estimated
06:26PM 45.9238 156.9649 50° Northeast  Level Estimated
06:27PM 46.0191 157.1292 50° Northeast  Level Estimated
06:28PM 46.1141 157.2941 50° Northeast  Level Estimated
06:29PM 46.2089 157.4596 50° Northeast  Level Estimated
06:30PM 46.3035 157.6256 50° Northeast  Level Estimated
06:31PM 46.3978 157.7922 51° Northeast  Level Estimated
06:32PM 46.4919 157.9594 51° Northeast  Level Estimated
06:33PM 46.5857 158.1271 51° Northeast  Level Estimated
06:34PM 46.6793 158.2955 51° Northeast  Level Estimated
06:35PM 46.7726 158.4644 51° Northeast  Level Estimated
06:36PM 46.8657 158.6339 51° Northeast  Level Estimated
06:37PM 46.9586 158.8040 51° Northeast  Level Estimated
06:38PM 47.0512 158.9747 51° Northeast  Level Estimated
06:39PM 47.1435 159.1460 52° Northeast  Level Estimated
06:40PM 47.2356 159.3179 52° Northeast  Level Estimated
06:41PM 47.3274 159.4903 52° Northeast  Level Estimated
06:42PM 47.4189 159.6634 52° Northeast  Level Estimated
06:43PM 47.5102 159.8371 52° Northeast  Level Estimated
06:44PM 47.6013 160.0113 52° Northeast  Level Estimated
06:45PM 47.6921 160.1862 52° Northeast  Level Estimated
06:46PM 47.7826 160.3617 52° Northeast  Level Estimated
06:47PM 47.8728 160.5378 53° Northeast  Level Estimated
06:48PM 47.9628 160.7145 53° Northeast  Level Estimated
06:49PM 48.0525 160.8919 53° Northeast  Level Estimated
06:50PM 48.1419 161.0698 53° Northeast  Level Estimated
06:51PM 48.2310 161.2484 53° Northeast  Level Estimated
06:52PM 48.3199 161.4276 53° Northeast  Level Estimated
06:53PM 48.4085 161.6074 53° Northeast  Level Estimated
06:54PM 48.4968 161.7878 54° Northeast  Level Estimated
06:55PM 48.5848 161.9689 54° Northeast  Level Estimated
06:56PM 48.6726 162.1506 54° Northeast  Level Estimated
06:57PM 48.7600 162.3329 54° Northeast  Level Estimated
06:58PM 48.8472 162.5159 54° Northeast  Level Estimated
06:58PM 42.9333 165.9833 69° East 532 612 33,000  Level Oakland Oceanic (ODAPS)
06:59PM 48.9340 162.6995 54° Northeast  Level Estimated
07:00PM 49.0206 162.8838 54° Northeast  Level Estimated
07:01PM 49.1069 163.0687 54° Northeast  Level Estimated
07:02PM 49.1929 163.2542 55° Northeast  Level Estimated
07:03PM 49.2786 163.4404 55° Northeast  Level Estimated
07:04PM 43.2524 167.1164 69° East 532 612 33,000  Level FlightAware Transoceanic
07:04PM 43.2833 167.2167 69° East 533 613 33,000  Level Oakland Oceanic (ODAPS)
07:05PM 43.3045 167.3064 69° East 532 612 33,000  Level FlightAware Transoceanic
07:06PM 43.3562 167.4967 70° East 532 612 33,000  Level FlightAware Transoceanic
07:07PM 43.4077 167.6874 70° East 532 612 33,000  Level FlightAware Transoceanic
07:08PM 43.4588 167.8783 70° East 532 612 33,000  Level FlightAware Transoceanic
07:09PM 43.5096 168.0696 70° East 532 612 33,000  Level FlightAware Transoceanic
07:10PM 43.5470 168.2031 70° East 533 613 33,000  Level FlightAware Transoceanic
07:11PM 43.5987 168.4014 70° East 533 613 33,000  Level FlightAware Transoceanic
07:12PM 43.6501 168.6000 70° East 533 613 33,000  Level FlightAware Transoceanic
07:13PM 43.7011 168.7990 71° East 533 613 33,000  Level FlightAware Transoceanic
07:14PM 43.7518 168.9983 71° East 533 613 33,000  Level FlightAware Transoceanic
07:15PM 43.8022 169.1980 71° East 533 613 33,000  Level FlightAware Transoceanic
07:16PM 43.8521 169.3980 71° East 533 613 33,000  Level FlightAware Transoceanic
07:17PM 43.9018 169.5983 71° East 533 613 33,000  Level FlightAware Transoceanic
07:18PM 43.9511 169.7990 71° East 533 613 33,000  Level FlightAware Transoceanic
07:18PM 43.9667 169.8833 68° East 525 604 33,000  Level Oakland Oceanic (ODAPS)
07:19PM 44.0000 170.0000 71° East 533 613 33,000  Level FlightAware Transoceanic
07:19PM 44.0000 170.0000 71° East 551 634 33,000  Level Oakland Oceanic (ODAPS)
07:20PM 44.0504 170.2009 71° East 533 613 33,000  Level FlightAware Transoceanic
07:21PM 44.1004 170.4021 71° East 533 613 33,000  Level FlightAware Transoceanic
07:22PM 44.1501 170.6037 71° East 533 613 33,000  Level FlightAware Transoceanic
07:23PM 44.1994 170.8056 71° East 533 613 33,000  Level FlightAware Transoceanic
07:24PM 44.2483 171.0078 71° East 525 604 33,000  Level FlightAware Transoceanic
07:25PM 44.2969 171.2104 72° East 551 634 33,000  Level FlightAware Transoceanic
07:26PM 44.3451 171.4133 72° East 551 634 33,000  Level FlightAware Transoceanic
07:27PM 44.3930 171.6165 72° East 551 634 33,000  Level FlightAware Transoceanic
07:28PM 44.4406 171.8201 72° East 551 634 33,000  Level FlightAware Transoceanic
07:29PM 44.4877 172.0240 72° East 551 634 33,000  Level FlightAware Transoceanic
07:30PM 44.5345 172.2283 72° East 551 634 33,000  Level FlightAware Transoceanic
07:31PM 44.5809 172.4328 72° East 551 634 33,000  Level FlightAware Transoceanic
07:32PM 44.6270 172.6377 73° East 551 634 33,000  Level FlightAware Transoceanic
07:32PM 44.6333 172.6333 73° East 558 642 33,000  Level Oakland Oceanic (ODAPS)
07:33PM 44.6727 172.8429 73° East 551 634 33,000  Level FlightAware Transoceanic
07:34PM 44.7180 173.0485 73° East 551 634 33,000  Level FlightAware Transoceanic
07:35PM 44.7630 173.2543 73° East 551 634 33,000  Level FlightAware Transoceanic
07:36PM 44.8075 173.4605 73° East 551 634 33,000  Level FlightAware Transoceanic
07:37PM 44.8518 173.6670 73° East 551 634 33,000  Level FlightAware Transoceanic
07:38PM 44.9009 173.8703 73° East 558 642 33,000  Level FlightAware Transoceanic
07:39PM 44.9442 174.0775 74° East 558 642 33,000  Level FlightAware Transoceanic
07:40PM 44.9871 174.2851 74° East 558 642 33,000  Level FlightAware Transoceanic
07:41PM 45.0297 174.4930 74° East 558 642 33,000  Level FlightAware Transoceanic
07:42PM 45.0718 174.7012 74° East 558 642 33,000  Level FlightAware Transoceanic
07:43PM 45.1136 174.9097 74° East 558 642 33,000  Level FlightAware Transoceanic
07:44PM 45.1550 175.1184 74° East 558 642 33,000  Level FlightAware Transoceanic
07:45PM 45.1960 175.3275 75° East 558 642 33,000  Level FlightAware Transoceanic
07:46PM 45.2367 175.5370 75° East 558 642 33,000  Level FlightAware Transoceanic
07:46PM 45.2333 175.5667 75° East 576 663 33,000  Level Oakland Oceanic (ODAPS)
07:47PM 45.2769 175.7466 75° East 558 642 33,000  Level FlightAware Transoceanic
07:48PM 45.3168 175.9566 75° East 558 642 33,000  Level FlightAware Transoceanic
07:49PM 45.3563 176.1669 75° East 558 642 33,000  Level FlightAware Transoceanic
07:50PM 45.3954 176.3775 75° East 558 642 33,000  Level FlightAware Transoceanic
07:51PM 45.4341 176.5884 75° East 558 642 33,000  Level FlightAware Transoceanic
07:52PM 45.4813 176.8838 75° East 576 663 33,000  Level FlightAware Transoceanic
07:53PM 45.5211 177.1044 76° East 576 663 33,000  Level FlightAware Transoceanic
07:54PM 45.5605 177.3254 76° East 576 663 33,000  Level FlightAware Transoceanic
07:55PM 45.5995 177.5466 76° East 576 663 33,000  Level FlightAware Transoceanic
07:56PM 45.6381 177.7682 76° East 576 663 33,000  Level FlightAware Transoceanic
07:57PM 45.6762 177.9900 76° East 576 663 33,000  Level FlightAware Transoceanic
07:58PM 45.7140 178.2122 76° East 576 663 33,000  Level FlightAware Transoceanic
07:59PM 45.7512 178.4347 77° East 576 663 33,000  Level FlightAware Transoceanic
08:00PM 45.7881 178.6574 77° East 576 663 33,000  Level FlightAware Transoceanic
08:00PM 45.7667 178.5667 76° East 547 629 33,000  Level Oakland Oceanic (ODAPS)
08:01PM 45.8245 178.8805 77° East 576 663 33,000  Level FlightAware Transoceanic
08:02PM 45.8605 179.1038 77° East 576 663 33,000  Level FlightAware Transoceanic
08:03PM 45.8960 179.3274 77° East 576 663 33,000  Level FlightAware Transoceanic
08:04PM 45.9311 179.5513 77° East 576 663 33,000  Level FlightAware Transoceanic
08:05PM 45.9658 179.7755 78° East 576 663 33,000  Level FlightAware Transoceanic
08:06PM 46.0000 -180.0000 70° East 547 629 33,000  Level FlightAware Transoceanic
08:07PM 46.0503 -179.7997 70° East 547 629 33,000  Level FlightAware Transoceanic
08:07PM 46.0000 180.0000 70° East 536 617 33,000  Level Oakland Oceanic (ODAPS)
08:08PM 46.1003 -179.5989 70° East 547 629 33,000  Level FlightAware Transoceanic
08:09PM 46.1500 -179.3978 70° East 547 629 33,000  Level FlightAware Transoceanic
08:10PM 46.1993 -179.1964 71° East 547 629 33,000  Level FlightAware Transoceanic
08:11PM 46.2482 -178.9946 71° East 547 629 33,000  Level FlightAware Transoceanic
08:12PM 46.2968 -178.7924 71° East 547 629 33,000  Level FlightAware Transoceanic
08:13PM 46.2968 -178.7924 71° East 536 617 33,000  Level FlightAware Transoceanic
08:14PM 46.3450 -178.5899 71° East 536 617 33,000  Level FlightAware Transoceanic
08:14PM 46.3667 -178.5167 71° East 542 624 33,000  Level Oakland Oceanic (ODAPS)
08:15PM 46.3928 -178.3870 71° East 536 617 33,000  Level FlightAware Transoceanic
08:16PM 46.4403 -178.1838 71° East 536 617 33,000  Level FlightAware Transoceanic
08:17PM 46.4875 -177.9802 71° East 536 617 33,000  Level FlightAware Transoceanic
08:18PM 46.5343 -177.7763 72° East 536 617 33,000  Level FlightAware Transoceanic
08:19PM 46.5807 -177.5720 72° East 536 617 33,000  Level FlightAware Transoceanic
08:20PM 46.6514 -177.2736 72° East 542 624 33,000  Level FlightAware Transoceanic
08:21PM 46.6975 -177.0652 72° East 542 624 33,000  Level FlightAware Transoceanic
08:22PM 46.7432 -176.8564 72° East 542 624 33,000  Level FlightAware Transoceanic
08:23PM 46.7886 -176.6473 73° East 542 624 33,000  Level FlightAware Transoceanic
08:24PM 46.8336 -176.4378 73° East 542 624 33,000  Level FlightAware Transoceanic
08:25PM 46.8782 -176.2279 73° East 542 624 33,000  Level FlightAware Transoceanic
08:26PM 46.9224 -176.0177 73° East 542 624 33,000  Level FlightAware Transoceanic
08:27PM 46.9663 -175.8072 73° East 542 624 33,000  Level FlightAware Transoceanic
08:27PM 47.0167 -175.5167 73° East 530 610 33,000  Level Oakland Oceanic (ODAPS)
08:28PM 47.0097 -175.5963 73° East 542 624 33,000  Level FlightAware Transoceanic
08:29PM 47.0528 -175.3851 73° East 542 624 33,000  Level FlightAware Transoceanic
08:30PM 47.0955 -175.1736 74° East 542 624 33,000  Level FlightAware Transoceanic
08:31PM 47.1378 -174.9617 74° East 542 624 33,000  Level FlightAware Transoceanic
08:32PM 47.1797 -174.7494 74° East 542 624 33,000  Level FlightAware Transoceanic
08:33PM 47.2212 -174.5369 74° East 542 624 33,000  Level FlightAware Transoceanic
08:34PM 47.2669 -174.2623 74° East 530 610 33,000  Level FlightAware Transoceanic
08:35PM 47.3073 -174.0521 74° East 530 610 33,000  Level FlightAware Transoceanic
08:36PM 47.3473 -173.8415 74° East 530 610 33,000  Level FlightAware Transoceanic
08:37PM 47.3869 -173.6307 75° East 530 610 33,000  Level FlightAware Transoceanic
08:38PM 47.4261 -173.4195 75° East 530 610 33,000  Level FlightAware Transoceanic
08:39PM 47.4649 -173.2081 75° East 530 610 33,000  Level FlightAware Transoceanic
08:40PM 47.5034 -172.9963 75° East 530 610 33,000  Level FlightAware Transoceanic
08:41PM 47.5414 -172.7842 75° East 530 610 33,000  Level FlightAware Transoceanic
08:41PM 47.5333 -172.8167 75° East 502 578 33,000  Level Oakland Oceanic (ODAPS)
08:42PM 47.5791 -172.5718 75° East 530 610 33,000  Level FlightAware Transoceanic
08:43PM 47.6163 -172.3591 76° East 530 610 33,000  Level FlightAware Transoceanic
08:44PM 47.6532 -172.1461 76° East 530 610 33,000  Level FlightAware Transoceanic
08:45PM 47.6897 -171.9328 76° East 530 610 33,000  Level FlightAware Transoceanic
08:46PM 47.7257 -171.7192 76° East 530 610 33,000  Level FlightAware Transoceanic
08:47PM 47.7614 -171.5053 76° East 530 610 33,000  Level FlightAware Transoceanic
08:48PM 47.7418 -171.6157 76° East 502 578 33,000  Level FlightAware Transoceanic
08:49PM 47.7753 -171.4147 76° East 502 578 33,000  Level FlightAware Transoceanic
08:50PM 47.8084 -171.2133 76° East 502 578 33,000  Level FlightAware Transoceanic
08:51PM 47.8413 -171.0117 76° East 502 578 33,000  Level FlightAware Transoceanic
08:52PM 47.8737 -170.8099 77° East 502 578 33,000  Level FlightAware Transoceanic
08:53PM 47.9058 -170.6078 77° East 502 578 33,000  Level FlightAware Transoceanic
08:54PM 47.9376 -170.4054 77° East 502 578 33,000  Level FlightAware Transoceanic
08:55PM 47.9690 -170.2028 77° East 502 578 33,000  Level FlightAware Transoceanic
08:55PM 47.9833 -170.0667 69° East 482 555 33,000  Level Oakland Oceanic (ODAPS)
08:56PM 48.0000 -170.0000 69° East 502 578 33,000  Level FlightAware Transoceanic
08:56PM 48.0000 -170.0000 69° East 516 594 33,000  Level Oakland Oceanic (ODAPS)
08:57PM 48.0524 -169.7915 69° East 502 578 33,000  Level FlightAware Transoceanic
08:58PM 48.1045 -169.5826 70° East 502 578 33,000  Level FlightAware Transoceanic
08:59PM 48.1562 -169.3733 70° East 502 578 33,000  Level FlightAware Transoceanic
09:00PM 48.2075 -169.1635 70° East 502 578 33,000  Level FlightAware Transoceanic
09:01PM 48.2584 -168.9534 70° East 482 555 33,000  Level FlightAware Transoceanic
09:02PM 48.2964 -168.7955 70° East 516 594 33,000  Level FlightAware Transoceanic
09:03PM 48.3445 -168.5934 70° East 516 594 33,000  Level FlightAware Transoceanic
09:04PM 48.3923 -168.3909 71° East 516 594 33,000  Level FlightAware Transoceanic
09:05PM 48.4398 -168.1880 71° East 516 594 33,000  Level FlightAware Transoceanic
09:06PM 48.4869 -167.9848 71° East 516 594 33,000  Level FlightAware Transoceanic
09:07PM 48.5336 -167.7812 71° East 516 594 33,000  Level FlightAware Transoceanic
09:08PM 48.5800 -167.5772 71° East 516 594 33,000  Level FlightAware Transoceanic
09:09PM 48.6260 -167.3728 71° East 516 594 33,000  Level FlightAware Transoceanic
09:09PM 48.6333 -167.3500 71° East 531 611 33,000  Level Oakland Oceanic (ODAPS)
09:10PM 48.6717 -167.1681 71° East 516 594 33,000  Level FlightAware Transoceanic
09:11PM 48.7170 -166.9630 72° East 516 594 33,000  Level FlightAware Transoceanic
09:12PM 48.7619 -166.7575 72° East 516 594 33,000  Level FlightAware Transoceanic
09:13PM 48.8065 -166.5517 72° East 516 594 33,000  Level FlightAware Transoceanic
09:14PM 48.8507 -166.3454 72° East 516 594 33,000  Level FlightAware Transoceanic
09:15PM 48.9080 -166.0833 72° East 531 611 33,000  Level FlightAware Transoceanic
09:16PM 48.9524 -165.8709 72° East 531 611 33,000  Level FlightAware Transoceanic
09:17PM 48.9965 -165.6581 73° East 531 611 33,000  Level FlightAware Transoceanic
09:18PM 49.0401 -165.4449 73° East 531 611 33,000  Level FlightAware Transoceanic
09:19PM 49.0834 -165.2313 73° East 531 611 33,000  Level FlightAware Transoceanic
09:20PM 49.1262 -165.0174 73° East 531 611 33,000  Level FlightAware Transoceanic
09:21PM 49.1687 -164.8031 73° East 531 611 33,000  Level FlightAware Transoceanic
09:22PM 49.2107 -164.5884 73° East 531 611 33,000  Level FlightAware Transoceanic
09:23PM 49.2524 -164.3733 74° East 531 611 33,000 720 Level FlightAware Transoceanic
09:23PM 49.2500 -164.3833 74° East 553 636 34,000  Climbing Oakland Oceanic (ODAPS)
09:24PM 49.2936 -164.1579 74° East 531 611 33,000 -660 Descending FlightAware Transoceanic
09:25PM 49.3345 -163.9422 74° East 531 611 33,000  Level FlightAware Transoceanic
09:26PM 49.3750 -163.7261 74° East 531 611 33,000  Level FlightAware Transoceanic
09:27PM 49.4150 -163.5096 74° East 531 611 33,000  Level FlightAware Transoceanic
09:28PM 49.4547 -163.2928 74° East 531 611 33,000 480 Level FlightAware Transoceanic
09:29PM 49.5047 -163.0139 75° East 553 636 34,000 480 Climbing FlightAware Transoceanic
09:30PM 49.5455 -162.7842 75° East 553 636 34,000  Level FlightAware Transoceanic
09:31PM 49.5859 -162.5542 75° East 553 636 34,000  Level FlightAware Transoceanic
09:32PM 49.6259 -162.3239 75° East 553 636 34,000  Level FlightAware Transoceanic
09:33PM 49.6654 -162.0931 75° East 553 636 34,000  Level FlightAware Transoceanic
09:34PM 49.7044 -161.8620 75° East 553 636 34,000  Level FlightAware Transoceanic
09:35PM 49.7430 -161.6305 76° East 553 636 34,000  Level FlightAware Transoceanic
09:36PM 49.7811 -161.3987 76° East 553 636 34,000  Level FlightAware Transoceanic
09:37PM 49.8187 -161.1664 76° East 553 636 34,000  Level FlightAware Transoceanic
09:37PM 49.8167 -161.2000 76° East 566 651 34,000  Level Oakland Oceanic (ODAPS)
09:38PM 49.8559 -160.9339 76° East 553 636 34,000  Level FlightAware Transoceanic
09:39PM 49.8927 -160.7009 76° East 553 636 34,000  Level FlightAware Transoceanic
09:40PM 49.9289 -160.4676 77° East 553 636 34,000  Level FlightAware Transoceanic
09:41PM 49.9647 -160.2340 77° East 553 636 34,000  Level FlightAware Transoceanic
09:42PM 50.0000 -160.0000 77° East 553 636 34,000  Level FlightAware Transoceanic
09:42PM 50.0000 -160.0000 77° East 578 665 34,000  Level Oakland Oceanic (ODAPS)
09:43PM 50.0353 -159.7558 77° East 566 651 34,000  Level FlightAware Transoceanic
09:44PM 50.0701 -159.5112 78° East 566 651 34,000  Level FlightAware Transoceanic
09:45PM 50.1044 -159.2663 78° East 566 651 34,000  Level FlightAware Transoceanic
09:46PM 50.1381 -159.0210 78° East 566 651 34,000  Level FlightAware Transoceanic
09:47PM 50.1714 -158.7754 78° East 566 651 34,000  Level FlightAware Transoceanic
09:48PM 50.2041 -158.5294 78° East 578 665 34,000  Level FlightAware Transoceanic
09:49PM 50.2363 -158.2832 79° East 578 665 34,000  Level FlightAware Transoceanic
09:50PM 50.2680 -158.0365 79° East 578 665 34,000  Level FlightAware Transoceanic
09:51PM 50.2992 -157.7896 79° East 578 665 34,000  Level FlightAware Transoceanic
09:51PM 50.2833 -157.8667 79° East 584 672 34,000  Level Oakland Oceanic (ODAPS)
09:52PM 50.3298 -157.5423 79° East 578 665 34,000  Level FlightAware Transoceanic
09:53PM 50.3599 -157.2948 79° East 578 665 34,000  Level FlightAware Transoceanic
09:54PM 50.3895 -157.0468 79° East 578 665 34,000  Level FlightAware Transoceanic
09:55PM 50.4186 -156.7986 80° East 578 665 34,000  Level FlightAware Transoceanic
09:56PM 50.4471 -156.5502 80° East 578 665 34,000  Level FlightAware Transoceanic
09:57PM 50.4632 -156.3641 80° East 584 672 34,000  Level FlightAware Transoceanic
09:58PM 50.4912 -156.1126 80° East 584 672 34,000  Level FlightAware Transoceanic
09:59PM 50.5188 -155.8608 80° East 584 672 34,000  Level FlightAware Transoceanic
10:00PM 50.5458 -155.6087 81° East 584 672 34,000  Level FlightAware Transoceanic
10:01PM 50.5722 -155.3563 81° East 584 672 34,000  Level FlightAware Transoceanic
10:02PM 50.5981 -155.1037 81° East 584 672 34,000  Level FlightAware Transoceanic
10:03PM 50.6235 -154.8507 81° East 584 672 34,000  Level FlightAware Transoceanic
10:04PM 50.6483 -154.5975 81° East 584 672 34,000  Level FlightAware Transoceanic
10:04PM 50.6667 -154.3833 81° East 597 687 34,000  Level Oakland Oceanic (ODAPS)
10:05PM 50.6725 -154.3441 82° East 584 672 34,000  Level FlightAware Transoceanic
10:06PM 50.6963 -154.0903 82° East 584 672 34,000  Level FlightAware Transoceanic
10:07PM 50.7194 -153.8363 82° East 584 672 34,000  Level FlightAware Transoceanic
10:08PM 50.7420 -153.5821 82° East 584 672 34,000  Level FlightAware Transoceanic
10:09PM 50.7641 -153.3276 82° East 584 672 34,000  Level FlightAware Transoceanic
10:10PM 50.7856 -153.0729 82° East 584 672 34,000  Level FlightAware Transoceanic
10:11PM 50.8030 -152.8436 83° East 597 687 34,000  Level FlightAware Transoceanic
10:12PM 50.8238 -152.5861 83° East 597 687 34,000  Level FlightAware Transoceanic
10:13PM 50.8440 -152.3284 83° East 597 687 34,000  Level FlightAware Transoceanic
10:14PM 50.8636 -152.0705 83° East 597 687 34,000  Level FlightAware Transoceanic
10:15PM 50.8826 -151.8124 83° East 597 687 34,000  Level FlightAware Transoceanic
10:16PM 50.9011 -151.5540 84° East 597 687 34,000  Level FlightAware Transoceanic
10:17PM 50.9190 -151.2955 84° East 597 687 34,000  Level FlightAware Transoceanic
10:18PM 50.9364 -151.0368 84° East 597 687 34,000  Level FlightAware Transoceanic
10:18PM 50.9500 -150.7833 84° East 600 690 34,000  Level Oakland Oceanic (ODAPS)
10:19PM 50.9531 -150.7778 84° East 597 687 34,000  Level FlightAware Transoceanic
10:20PM 50.9693 -150.5187 84° East 597 687 34,000  Level FlightAware Transoceanic
10:21PM 50.9850 -150.2595 85° East 597 687 34,000  Level FlightAware Transoceanic
10:22PM 51.0000 -150.0000 95° East 597 687 34,000  Level FlightAware Transoceanic
10:23PM 50.9848 -149.7321 95° East 597 687 34,000  Level FlightAware Transoceanic
10:23PM 51.0000 -150.0000 95° East 603 694 34,000  Level Oakland Oceanic (ODAPS)
10:24PM 50.9690 -149.4644 95° East 597 687 34,000  Level FlightAware Transoceanic
10:25PM 50.9538 -149.2174 96° East 600 690 34,000  Level FlightAware Transoceanic
10:26PM 50.9373 -148.9569 96° East 600 690 34,000  Level FlightAware Transoceanic
10:27PM 50.9201 -148.6966 96° East 600 690 34,000  Level FlightAware Transoceanic
10:28PM 50.9024 -148.4365 96° East 600 690 34,000  Level FlightAware Transoceanic
10:29PM 50.8807 -148.1287 97° East 603 694 34,000  Level FlightAware Transoceanic
10:30PM 50.8612 -147.8622 97° East 603 694 34,000  Level FlightAware Transoceanic
10:31PM 50.8411 -147.5959 97° East 603 694 34,000  Level FlightAware Transoceanic
10:32PM 50.8204 -147.3298 97° East 603 694 34,000  Level FlightAware Transoceanic
10:32PM 50.8000 -147.1667 97° East 604 695 34,000  Level Oakland Oceanic (ODAPS)
10:33PM 50.7992 -147.0640 97° East 603 694 34,000  Level FlightAware Transoceanic
10:34PM 50.7773 -146.7985 98° East 603 694 34,000  Level FlightAware Transoceanic
10:35PM 50.7548 -146.5332 98° East 603 694 34,000  Level FlightAware Transoceanic
10:36PM 50.7317 -146.2681 98° East 603 694 34,000  Level FlightAware Transoceanic
10:37PM 50.7080 -146.0033 98° East 603 694 34,000  Level FlightAware Transoceanic
10:38PM 50.6853 -145.8222 98° East 604 695 34,000  Level FlightAware Transoceanic
10:39PM 50.6605 -145.5541 98° East 604 695 34,000  Level FlightAware Transoceanic
10:40PM 50.6351 -145.2863 99° East 604 695 34,000  Level FlightAware Transoceanic
10:41PM 50.6091 -145.0188 99° East 604 695 34,000  Level FlightAware Transoceanic
10:42PM 50.5824 -144.7516 99° East 604 695 34,000  Level FlightAware Transoceanic
10:43PM 50.5552 -144.4847 99° East 604 695 34,000  Level FlightAware Transoceanic
10:44PM 50.5273 -144.2181 99° East 604 695 34,000  Level FlightAware Transoceanic
10:45PM 50.4989 -143.9518 100° East 604 695 34,000  Level FlightAware Transoceanic
10:46PM 50.4698 -143.6859 100° East 604 695 34,000  Level FlightAware Transoceanic
10:46PM 50.4667 -143.5667 100° East 609 701 34,000  Level Oakland Oceanic (ODAPS)
10:47PM 50.4401 -143.4203 100° East 604 695 34,000  Level FlightAware Transoceanic
10:48PM 50.4099 -143.1550 100° East 604 695 34,000  Level FlightAware Transoceanic
10:49PM 50.3790 -142.8901 100° East 604 695 34,000  Level FlightAware Transoceanic
10:50PM 50.3475 -142.6255 101° East 604 695 34,000  Level FlightAware Transoceanic
10:51PM 50.3154 -142.3613 101° East 604 695 34,000  Level FlightAware Transoceanic
10:52PM 50.2800 -142.0296 101° East 609 701 34,000  Level FlightAware Transoceanic
10:53PM 50.2470 -141.7746 102° East 609 701 34,000  Level FlightAware Transoceanic
10:54PM 50.2134 -141.5200 102° East 609 701 34,000  Level FlightAware Transoceanic
10:55PM 50.1792 -141.2657 102° East 609 701 34,000  Level FlightAware Transoceanic
10:56PM 50.1444 -141.0118 102° East 609 701 34,000  Level FlightAware Transoceanic
10:57PM 50.1092 -140.7583 102° East 609 701 34,000  Level FlightAware Transoceanic
10:58PM 50.0733 -140.5052 103° East 609 701 34,000  Level FlightAware Transoceanic
10:59PM 50.0369 -140.2524 103° East 609 701 34,000  Level FlightAware Transoceanic
11:00PM 50.0000 -140.0000 99° East 609 701 34,000  Level FlightAware Transoceanic
11:00PM 50.0000 -140.0000 99° East 612 704 34,000  Level Oakland Oceanic (ODAPS)
11:00PM 50.0000 -139.9833 99° East 612 704 34,000  Level Oakland Oceanic (ODAPS)
11:01PM 49.9747 -139.7437 99° East 609 701 34,000  Level FlightAware Transoceanic
11:02PM 49.9488 -139.4877 99° East 609 701 34,000  Level FlightAware Transoceanic
11:03PM 49.9223 -139.2319 99° East 609 701 34,000  Level FlightAware Transoceanic
11:04PM 49.8953 -138.9764 99° East 609 701 34,000  Level FlightAware Transoceanic
11:05PM 49.8677 -138.7212 100° East 609 701 34,000  Level FlightAware Transoceanic
11:06PM 49.8394 -138.4530 100° East 612 704 34,000  Level FlightAware Transoceanic
11:07PM 49.8107 -138.1990 100° East 612 704 34,000  Level FlightAware Transoceanic
11:08PM 49.7815 -137.9453 100° East 612 704 34,000  Level FlightAware Transoceanic
11:09PM 49.7516 -137.6919 100° East 612 704 34,000  Level FlightAware Transoceanic
11:10PM 49.7213 -137.4388 101° East 612 704 34,000  Level FlightAware Transoceanic
11:11PM 49.6903 -137.1860 101° East 612 704 34,000  Level FlightAware Transoceanic
11:12PM 49.6589 -136.9335 101° East 612 704 34,000  Level FlightAware Transoceanic
11:13PM 49.6269 -136.6814 101° East 612 704 34,000  Level FlightAware Transoceanic
11:14PM 49.5943 -136.4296 101° East 612 704 34,000  Level FlightAware Transoceanic
11:14PM 49.5833 -136.3500 101° East 624 718 34,000  Level Oakland Oceanic (ODAPS)
11:15PM 49.5612 -136.1781 102° East 612 704 34,000  Level FlightAware Transoceanic
11:16PM 49.5275 -135.9270 102° East 612 704 34,000  Level FlightAware Transoceanic
11:17PM 49.4933 -135.6762 102° East 612 704 34,000  Level FlightAware Transoceanic
11:18PM 49.4586 -135.4258 102° East 612 704 34,000  Level FlightAware Transoceanic
11:19PM 49.4233 -135.1758 102° East 612 704 34,000  Level FlightAware Transoceanic
11:20PM 49.3658 -134.7790 103° East 624 718 34,000  Level FlightAware Transoceanic
11:21PM 49.3274 -134.5185 103° East 624 718 34,000  Level FlightAware Transoceanic
11:22PM 49.2886 -134.2585 103° East 624 718 34,000  Level FlightAware Transoceanic
11:23PM 49.2491 -133.9989 103° East 624 718 34,000  Level FlightAware Transoceanic
11:24PM 49.2090 -133.7396 103° East 624 718 34,000  Level FlightAware Transoceanic
11:25PM 49.1684 -133.4809 104° East 624 718 34,000  Level FlightAware Transoceanic
11:26PM 49.1271 -133.2225 104° East 624 718 34,000  Level FlightAware Transoceanic
11:27PM 49.0853 -132.9646 104° East 624 718 34,000  Level FlightAware Transoceanic
11:28PM 49.0429 -132.7070 104° East 624 718 34,000  Level FlightAware Transoceanic
11:28PM 49.0500 -132.7833 103° East 607 699 34,000  Level Oakland Oceanic (ODAPS)
11:29PM 49.0000 -132.4500 101° East 624 718 34,000  Level FlightAware Transoceanic
11:30PM 48.9675 -132.1998 101° East 624 718 34,000  Level FlightAware Transoceanic
11:31PM 48.9344 -131.9499 101° East 624 718 34,000  Level FlightAware Transoceanic
11:31PM 48.9000 -131.9333 102° East 600 690 34,000  Level Vancouver Center
11:32PM 48.9009 -131.7003 102° East 624 718 34,000  Level FlightAware Transoceanic
11:32PM 48.8500 -131.6667 106° East 610 702 34,000  Level Vancouver Center
11:33PM 48.8667 -131.4511 102° East 624 718 34,000 480 Level FlightAware Transoceanic
11:33PM 48.8167 -131.4167 101° East 620 713 34,500  Climbing Vancouver Center
11:34PM 48.8321 -131.2023 102° East 607 699 34,000 480 Descending FlightAware Transoceanic
11:34PM 48.7833 -131.1500 101° East 620 713 35,000  Climbing Vancouver Center
11:35PM 48.7969 -130.9537 102° East 607 699 34,000  Descending FlightAware Transoceanic
11:35PM 48.7500 -130.9000 101° East 620 713 35,000  Climbing Vancouver Center
11:36PM 48.7612 -130.7056 102° East 607 699 34,000  Descending FlightAware Transoceanic
11:36PM 48.7167 -130.6333 101° East 610 702 35,000 540 Climbing Vancouver Center
11:37PM 48.6833 -130.4000 102° East 620 713 35,000  Level Vancouver Center
11:38PM 48.6500 -130.1500 101° East 610 702 35,000  Level Vancouver Center
11:39PM 48.6167 -129.8833 101° East 610 702 35,000  Level Vancouver Center
11:40PM 48.5667 -129.6500 108° East 610 702 35,000  Level Vancouver Center
11:41PM 48.5167 -129.4000 107° East 610 702 35,000  Level Vancouver Center
11:42PM 48.4833 -129.1333 101° East 610 702 35,000  Level Vancouver Center
11:43PM 48.4500 -128.8833 101° East 610 702 35,000  Level Vancouver Center
11:44PM 48.4167 -128.6500 102° East 610 702 35,000  Level Vancouver Center
11:45PM 48.3833 -128.4000 101° East 610 702 35,000  Level Vancouver Center
11:46PM 48.3333 -128.1500 107° East 610 702 35,000  Level Vancouver Center
11:52PM 48.1900 -126.7460 107° East 599 689 35,000  Level FlightAware
11:53PM 48.1570 -126.5750 106° East 599 689 35,000  Level FlightAware
11:53PM 48.1260 -126.4030 105° East 599 689 35,000  Level FlightAware
11:54PM 48.0980 -126.2470 105° East 601 692 35,000  Level FlightAware
11:55PM 48.0660 -126.0770 106° East 599 689 35,000  Level FlightAware
11:55PM 48.0370 -125.9180 105° East 598 688 35,000  Level FlightAware
11:56PM 47.9980 -125.7100 106° East 597 687 35,000  Level FlightAware
11:57PM 47.9690 -125.5550 106° East 597 687 35,000  Level FlightAware
11:58PM 47.9380 -125.3930 106° East 597 687 35,000  Level FlightAware
11:58PM 47.9040 -125.2180 106° East 596 686 35,000  Level FlightAware
11:59PM 47.8730 -125.0580 106° East 596 686 35,000  Level FlightAware
12:00AM 47.8390 -124.8830 106° East 593 682 35,000  Level FlightAware
12:00AM 47.8070 -124.7230 107° East 593 682 35,000  Level FlightAware
12:01AM 47.7780 -124.5670 105° East 592 681 35,000  Level FlightAware
12:02AM 47.7450 -124.3950 106° East 590 679 35,000  Level FlightAware
12:02AM 47.7140 -124.2360 106° East 589 678 35,000  Level FlightAware
12:03AM 47.6800 -124.0650 106° East 588 677 35,000  Level FlightAware
12:04AM 47.6490 -123.9080 106° East 586 674 35,000  Level FlightAware
12:05AM 47.6140 -123.7350 107° East 583 671 35,000  Level FlightAware
12:05AM 47.5830 -123.5840 107° East 581 669 35,000  Level FlightAware
12:06AM 47.5530 -123.4360 107° East 580 667 35,000  Level FlightAware
12:07AM 47.5170 -123.2600 107° East 582 670 35,000  Level FlightAware
12:07AM 47.4850 -123.1060 107° East 583 671 35,000  Level FlightAware
12:08AM 47.4530 -122.9500 107° East 585 673 35,000  Level FlightAware
12:09AM 47.4160 -122.7750 107° East 586 674 35,000  Level FlightAware
12:09AM 47.3840 -122.6250 107° East 582 670 35,000  Level FlightAware
12:10AM 47.3480 -122.4550 107° East 584 672 35,000  Level FlightAware
12:11AM 47.3150 -122.3020 108° East 583 671 35,000  Level FlightAware
12:12AM 47.2820 -122.1510 108° East 584 672 35,000  Level FlightAware
12:12AM 47.2480 -121.9950 108° East 584 672 35,000  Level FlightAware
12:13AM 47.2190 -121.8640 108° East 583 671 35,000  Level FlightAware
12:14AM 47.1740 -121.6620 108° East 584 672 35,000  Level FlightAware
12:14AM 47.1400 -121.5090 108° East 583 671 35,000  Level FlightAware
12:15AM 47.1070 -121.3620 108° East 581 669 35,000  Level FlightAware
12:16AM 47.0630 -121.1680 108° East 579 666 35,000  Level FlightAware
12:17AM 47.0350 -121.0410 108° East 579 666 35,000  Level FlightAware
12:17AM 47.0070 -120.9140 108° East 579 666 35,000  Level FlightAware
12:18AM 46.9790 -120.7870 108° East 579 666 35,000  Level FlightAware
12:19AM 46.9510 -120.6600 108° East 579 666 35,000  Level FlightAware
12:20AM 46.9160 -120.5010 108° East 579 666 35,000  Level FlightAware
12:20AM 46.8870 -120.3740 108° East 579 666 35,000  Level FlightAware
12:21AM 46.8590 -120.2480 108° East 579 666 35,000  Level FlightAware
12:22AM 46.8310 -120.1210 108° East 579 666 35,000  Level FlightAware
12:22AM 46.8030 -119.9940 108° East 579 666 35,000  Level FlightAware
12:23AM 46.7680 -119.8360 108° East 579 666 35,000  Level FlightAware
12:24AM 46.7400 -119.7100 108° East 579 666 35,000  Level FlightAware
12:24AM 46.7110 -119.5840 109° East 579 666 35,000  Level FlightAware
12:25AM 46.6830 -119.4570 108° East 579 666 35,000  Level FlightAware
12:25AM 46.5694 -119.1131 108° East 562 647 35,000  Level Seattle Center
12:26AM 46.5158 -118.8992 110° East 563 648 35,000  Level Seattle Center
12:27AM 46.4675 -118.6997 109° East 556 640 35,000  Level Seattle Center
12:28AM 46.4128 -118.4906 111° Southeast 558 642 35,000  Level Seattle Center
12:29AM 46.3583 -118.2808 111° Southeast 559 643 35,000  Level Seattle Center
12:30AM 46.3042 -118.0714 110° East 560 644 35,000  Level Seattle Center
12:31AM 46.2492 -117.8633 111° Southeast 560 644 35,000 -60 Level Seattle Center
12:32AM 46.1942 -117.6581 111° Southeast 555 639 34,900 -60 Descending Seattle Center
12:33AM 46.1378 -117.4503 111° Southeast 557 641 34,900  Level Seattle Center
12:34AM 46.0822 -117.2419 111° Southeast 560 644 35,000  Climbing Seattle Center
12:35AM 46.0247 -117.0375 112° Southeast 557 641 35,000  Level Seattle Center
12:36AM 45.9697 -116.8297 111° Southeast 559 643 35,000  Level Seattle Center
12:37AM 45.9131 -116.6308 112° Southeast 544 626 35,000  Level Seattle Center
12:38AM 45.8569 -116.4292 112° Southeast 544 626 35,000  Level Seattle Center
12:39AM 45.7986 -116.2278 112° Southeast 550 633 35,000  Level Seattle Center
12:40AM 45.7428 -116.0272 112° Southeast 546 628 35,000  Level Seattle Center
12:41AM 45.6894 -115.8347 112° Southeast 541 623 35,000  Level Salt Lake Center
12:42AM 45.6344 -115.6450 112° Southeast 539 620 35,000  Level Salt Lake Center
12:42AM 45.6247 -115.6119 113° Southeast 544 626 35,000  Level Seattle Center
12:43AM 45.5606 -115.3925 113° Southeast 539 620 35,000  Level Seattle Center
12:44AM 45.5039 -115.2011 113° Southeast 544 626 35,000  Level Seattle Center
12:45AM 45.4578 -115.0453 113° Southeast 540 621 35,000  Level Salt Lake Center
12:46AM 45.4011 -114.8553 113° Southeast 542 624 35,000  Level Salt Lake Center
12:47AM 45.3444 -114.6672 113° Southeast 539 620 35,000  Level Salt Lake Center
12:48AM 45.2775 -114.4472 113° Southeast 541 623 35,000  Level Salt Lake Center
12:49AM 45.2203 -114.2586 113° Southeast 543 625 35,000  Level Salt Lake Center
12:50AM 45.1625 -114.0728 114° Southeast 540 621 35,000  Level Salt Lake Center
12:51AM 45.0975 -113.8644 114° Southeast 541 623 35,000  Level Salt Lake Center
12:52AM 45.0414 -113.6789 113° Southeast 539 620 35,000  Level Salt Lake Center
12:53AM 44.9808 -113.4956 115° Southeast 538 619 35,000  Level Salt Lake Center
12:54AM 44.9144 -113.2817 114° Southeast 534 615 35,000  Level Salt Lake Center
12:55AM 44.8558 -113.0967 114° Southeast 539 620 35,000  Level Salt Lake Center
12:56AM 44.7961 -112.9144 115° Southeast 538 619 35,000  Level Salt Lake Center
12:57AM 44.7283 -112.7019 114° Southeast 536 617 35,000  Level Salt Lake Center
12:58AM 44.6692 -112.5194 114° Southeast 537 618 35,000  Level Salt Lake Center
01:00AM 44.5594 -112.1856 115° Southeast 539 620 35,000  Level Salt Lake Center
01:01AM 44.4986 -112.0039 115° Southeast 541 623 35,000  Level Salt Lake Center
01:02AM 44.4389 -111.8258 115° Southeast 536 617 35,000  Level Salt Lake Center
01:03AM 44.3694 -111.6189 115° Southeast 533 613 35,000  Level Salt Lake Center
01:04AM 44.3086 -111.4425 116° Southeast 535 616 35,000  Level Salt Lake Center
01:05AM 44.2392 -111.2389 115° Southeast 528 608 35,000  Level Salt Lake Center
01:06AM 44.1789 -111.0633 116° Southeast 527 606 35,000  Level Salt Lake Center
01:07AM 44.1172 -110.8881 116° Southeast 529 609 35,000  Level Salt Lake Center
01:08AM 44.0461 -110.6828 116° Southeast 528 608 35,000  Level Salt Lake Center
01:09AM 43.9842 -110.5086 116° Southeast 527 606 35,000  Level Salt Lake Center
01:10AM 43.9222 -110.3347 116° Southeast 527 606 35,000  Level Salt Lake Center
01:11AM 43.8606 -110.1614 116° Southeast 525 604 35,000  Level Salt Lake Center
01:12AM 43.7881 -109.9603 116° Southeast 524 603 35,000  Level Salt Lake Center
01:13AM 43.7258 -109.7903 117° Southeast 519 597 35,000  Level Salt Lake Center
01:14AM 43.6628 -109.6206 117° Southeast 518 596 35,000  Level Salt Lake Center
01:15AM 43.5911 -109.4211 116° Southeast 522 601 35,000  Level Salt Lake Center
01:16AM 43.5281 -109.2514 117° Southeast 521 600 35,000  Level Salt Lake Center
01:17AM 43.4644 -109.0814 117° Southeast 522 601 35,000  Level Salt Lake Center
01:18AM 43.3917 -108.8831 117° Southeast 521 600 35,000  Level Salt Lake Center
01:19AM 43.3269 -108.7147 118° Southeast 522 601 35,000  Level Salt Lake Center
01:20AM 43.2628 -108.5450 117° Southeast 525 604 35,000  Level Salt Lake Center
01:21AM 43.1889 -108.3481 117° Southeast 521 600 35,000  Level Salt Lake Center
01:22AM 43.1236 -108.1797 118° Southeast 523 602 35,000  Level Salt Lake Center
01:23AM 43.0592 -108.0106 117° Southeast 524 603 35,000  Level Salt Lake Center
01:24AM 42.9936 -107.8431 118° Southeast 523 602 35,000  Level Salt Lake Center
01:25AM 42.9225 -107.6606 118° Southeast 525 604 35,000  Level Salt Lake Center
01:26AM 42.8464 -107.4653 118° Southeast 522 601 35,000  Level Salt Lake Center
01:27AM 42.7803 -107.2994 118° Southeast 519 597 35,000  Level Salt Lake Center
01:28AM 42.7142 -107.1336 118° Southeast 520 598 35,000  Level Salt Lake Center
01:29AM 42.6447 -106.9606 119° Southeast 518 596 35,000  Level Salt Lake Center
01:35AM 42.2510 -105.9910 119° Southeast 508 585 35,000  Level FlightAware
01:36AM 42.1970 -105.8600 119° Southeast 509 586 35,000  Level FlightAware
01:36AM 42.1580 -105.7660 119° Southeast 509 586 35,000  Level FlightAware
01:37AM 42.1190 -105.6710 119° Southeast 509 586 35,000  Level FlightAware
01:38AM 42.0810 -105.5770 119° Southeast 509 586 35,000  Level FlightAware
01:39AM 42.0320 -105.4590 119° Southeast 509 586 35,000  Level FlightAware
01:39AM 41.9930 -105.3650 119° Southeast 509 586 35,000  Level FlightAware
01:40AM 41.9540 -105.2710 119° Southeast 509 586 35,000  Level FlightAware
01:40AM 41.8884 -105.1290 122° Southeast 501 577 35,000  Level FlightAware ADS-B
01:41AM 41.8535 -105.0480 120° Southeast 501 577 35,000  Level FlightAware ADS-B
01:41AM 41.8181 -104.9650 120° Southeast 497 572 35,000  Level FlightAware ADS-B
01:42AM 41.7837 -104.8850 120° Southeast 491 565 35,000  Level FlightAware ADS-B
01:42AM 41.7491 -104.8060 120° Southeast 493 567 35,000  Level FlightAware ADS-B
01:43AM 41.7141 -104.7250 120° Southeast 498 573 35,000  Level FlightAware ADS-B
01:43AM 41.6791 -104.6440 120° Southeast 500 575 35,000  Level FlightAware ADS-B
01:44AM 41.6440 -104.5630 120° Southeast 504 580 35,000  Level FlightAware ADS-B
01:44AM 41.6085 -104.4820 120° Southeast 500 575 35,000  Level FlightAware ADS-B
01:45AM 41.5664 -104.3850 120° Southeast 500 575 35,000  Level FlightAware ADS-B
01:45AM 41.5310 -104.3050 121° Southeast 503 579 35,000  Level FlightAware ADS-B
01:46AM 41.4953 -104.2230 120° Southeast 508 585 35,000  Level FlightAware ADS-B
01:46AM 41.4593 -104.1420 121° Southeast 508 585 35,000  Level FlightAware ADS-B
01:47AM 41.4233 -104.0600 120° Southeast 506 582 35,000  Level FlightAware ADS-B
01:47AM 41.3875 -103.9800 121° Southeast 508 585 35,000  Level FlightAware ADS-B
01:48AM 41.3517 -103.8990 120° Southeast 509 586 35,000  Level FlightAware ADS-B
01:48AM 41.3154 -103.8180 121° Southeast 510 587 35,000  Level FlightAware ADS-B
01:49AM 41.2787 -103.7350 120° Southeast 513 590 35,000  Level FlightAware ADS-B
01:49AM 41.2420 -103.6530 121° Southeast 513 590 35,000  Level FlightAware ADS-B
01:50AM 41.2052 -103.5720 121° Southeast 514 592 35,000 780 Level FlightAware ADS-B
01:50AM 41.1685 -103.4900 121° Southeast 514 592 35,800 840 Climbing FlightAware ADS-B
01:51AM 41.1284 -103.4020 121° Southeast 531 611 35,900 540 Climbing FlightAware ADS-B
01:51AM 41.0895 -103.3160 121° Southeast 536 617 36,400 1,080 Climbing FlightAware ADS-B
01:52AM 41.0516 -103.2320 121° Southeast 523 602 37,000 540 Climbing FlightAware ADS-B
01:52AM 41.0148 -103.1510 121° Southeast 510 587 37,000  Level FlightAware ADS-B
01:53AM 40.9776 -103.0700 121° Southeast 513 590 37,000  Level FlightAware ADS-B
01:53AM 40.9391 -102.9860 121° Southeast 515 593 37,000  Level FlightAware ADS-B
01:54AM 40.8982 -102.8970 121° Southeast 511 588 37,000  Level FlightAware ADS-B
01:54AM 40.8615 -102.8170 121° Southeast 506 582 37,000  Level FlightAware ADS-B
01:55AM 40.8247 -102.7370 121° Southeast 505 581 37,000  Level FlightAware ADS-B
01:55AM 40.7876 -102.6570 121° Southeast 505 581 37,000  Level FlightAware ADS-B
01:56AM 40.7510 -102.5790 122° Southeast 505 581 37,000  Level FlightAware ADS-B
01:56AM 40.7140 -102.4990 121° Southeast 505 581 37,000  Level FlightAware ADS-B
01:57AM 40.6769 -102.4200 122° Southeast 507 583 37,000  Level FlightAware ADS-B
01:57AM 40.6396 -102.3400 122° Southeast 507 583 37,000  Level FlightAware ADS-B
01:58AM 40.6023 -102.2600 122° Southeast 508 585 37,000  Level FlightAware ADS-B
01:58AM 40.5650 -102.1810 122° Southeast 506 582 37,000  Level FlightAware ADS-B
01:59AM 40.5280 -102.1030 122° Southeast 507 583 37,000  Level FlightAware ADS-B
01:59AM 40.4910 -102.0240 122° Southeast 506 582 37,000  Level FlightAware ADS-B
02:00AM 40.4540 -101.9460 122° Southeast 500 575 37,000  Level FlightAware ADS-B
02:00AM 40.4173 -101.8690 122° Southeast 496 571 37,000  Level FlightAware ADS-B
02:01AM 40.3807 -101.7920 122° Southeast 496 571 37,000  Level FlightAware ADS-B
02:02AM 40.3428 -101.7130 122° Southeast 498 573 37,000  Level FlightAware ADS-B
02:02AM 40.3072 -101.6350 121° Southeast 502 578 37,000  Level FlightAware ADS-B
02:03AM 40.2732 -101.5530 119° Southeast 503 579 37,000  Level FlightAware ADS-B
02:03AM 40.2415 -101.4710 117° Southeast 503 579 37,000  Level FlightAware ADS-B
02:04AM 40.2103 -101.3880 116° Southeast 502 578 37,000  Level FlightAware ADS-B
02:04AM 40.1777 -101.3000 116° Southeast 500 575 37,000  Level FlightAware ADS-B
02:05AM 40.1475 -101.2180 116° Southeast 499 574 37,000  Level FlightAware ADS-B
02:05AM 40.1130 -101.1250 116° Southeast 498 573 37,000  Level FlightAware ADS-B
02:06AM 40.0972 -101.0819 116° Southeast 498 573 37,000  Level Denver Center
02:07AM 40.0397 -100.9292 116° Southeast 493 567 37,000  Level Denver Center
02:08AM 39.9722 -100.7517 116° Southeast 491 565 37,000  Level Denver Center
02:09AM 39.9156 -100.6025 116° Southeast 485 558 37,000  Level Denver Center
02:10AM 39.8583 -100.4539 117° Southeast 482 555 37,000  Level Denver Center
02:11AM 39.7906 -100.2764 116° Southeast 491 565 37,000  Level Denver Center
02:12AM 39.7308 -100.1264 117° Southeast 489 563 37,000  Level Denver Center
02:13AM 39.6722 -99.9744 117° Southeast 492 566 37,000  Level Denver Center
02:14AM 39.6058 -99.8022 117° Southeast 482 555 37,000  Level Denver Center
02:15AM 39.5447 -99.6503 118° Southeast 477 549 37,000  Level Denver Center
02:16AM 39.4847 -99.4969 117° Southeast 478 550 37,000  Level Denver Center
02:17AM 39.4297 -99.3611 118° Southeast 484 557 37,000  Level Denver Center
02:18AM 39.3614 -99.1867 117° Southeast 488 562 37,000  Level Denver Center
02:19AM 39.3006 -99.0383 118° Southeast 488 562 37,000  Level Denver Center
02:20AM 39.2344 -98.8725 117° Southeast 494 568 37,000  Level Denver Center
02:21AM 39.1711 -98.7183 118° Southeast 488 562 37,000  Level Denver Center
02:22AM 39.1078 -98.5633 118° Southeast 490 564 37,000  Level Denver Center
02:22AM 39.0961 -98.5358 119° Southeast 490 564 37,000  Level Kansas City Center
02:23AM 39.0322 -98.3814 118° Southeast 489 563 37,000  Level Kansas City Center
02:29AM 38.6500 -97.4730 118° Southeast 496 571 37,000  Level FlightAware
02:29AM 38.6160 -97.3940 119° Southeast 495 570 37,000  Level FlightAware
02:30AM 38.5640 -97.2730 119° Southeast 496 571 37,000  Level FlightAware
02:31AM 38.5000 -97.1210 118° Southeast 497 572 37,000  Level FlightAware
02:32AM 38.4420 -96.9900 119° Southeast 499 574 37,000  Level FlightAware
02:33AM 38.3710 -96.8260 119° Southeast 500 575 37,000  Level FlightAware
02:34AM 38.3130 -96.6930 119° Southeast 502 578 37,000  Level FlightAware
02:34AM 38.2630 -96.5800 119° Southeast 496 571 37,000  Level FlightAware
02:35AM 38.2020 -96.4410 119° Southeast 493 567 37,000  Level FlightAware
02:36AM 38.1610 -96.3480 119° Southeast 495 570 37,000  Level FlightAware
02:37AM 38.1220 -96.2600 119° Southeast 496 571 37,000  Level FlightAware
02:37AM 38.0780 -96.1610 119° Southeast 495 570 37,000  Level FlightAware
02:39AM 38.0250 -96.0410 119° Southeast 492 566 37,000  Level FlightAware
02:39AM 38.0580 -96.1160 299° West 492 566 37,000  Level FlightAware
02:40AM 38.0140 -96.0150 119° Southeast 492 566 37,000  Level FlightAware
02:41AM 38.0580 -96.1160 299° West 492 566 37,000  Level FlightAware
02:42AM 37.7830 -95.5050 120° Southeast 497 572 37,000  Level FlightAware
02:43AM 37.7160 -95.3550 119° Southeast 500 575 37,000  Level FlightAware
02:44AM 37.6500 -95.2090 120° Southeast 500 575 37,000  Level FlightAware
02:44AM 37.6520 -95.2140 297° West 499 574 37,000  Level FlightAware
02:45AM 37.5340 -94.9620 121° Southeast 499 574 37,000  Level FlightAware
02:46AM 37.4780 -94.8390 120° Southeast 499 574 37,000  Level FlightAware
02:47AM 37.4290 -94.7320 120° Southeast 499 574 37,000  Level FlightAware
02:47AM 37.3900 -94.6470 120° Southeast 499 574 37,000  Level FlightAware
02:48AM 37.3500 -94.5610 120° Southeast 499 574 37,000  Level FlightAware
02:49AM 37.3110 -94.4760 120° Southeast 499 574 37,000  Level FlightAware
02:50AM 37.2620 -94.3690 120° Southeast 499 574 37,000  Level FlightAware
02:50AM 37.2230 -94.2830 120° Southeast 499 574 37,000  Level FlightAware
02:51AM 37.1830 -94.1980 121° Southeast 499 574 37,000  Level FlightAware
02:52AM 37.1440 -94.1130 120° Southeast 499 574 37,000  Level FlightAware
02:52AM 37.1050 -94.0270 120° Southeast 499 574 37,000  Level FlightAware
02:53AM 37.0560 -93.9210 120° Southeast 499 574 37,000  Level FlightAware
02:54AM 37.0170 -93.8360 120° Southeast 499 574 37,000  Level FlightAware
02:54AM 36.9770 -93.7510 120° Southeast 499 574 37,000  Level FlightAware
02:55AM 36.8380 -93.4840 123° Southeast 492 566 37,000  Level FlightAware
02:56AM 36.7990 -93.4010 120° Southeast 492 566 37,000  Level FlightAware
02:57AM 36.7370 -93.2780 122° Southeast 500 575 37,000  Level FlightAware
02:57AM 36.6960 -93.1940 121° Southeast 500 575 37,000  Level FlightAware
02:58AM 36.6560 -93.1100 121° Southeast 500 575 37,000  Level FlightAware
02:59AM 36.6150 -93.0260 121° Southeast 500 575 37,000  Level FlightAware
02:59AM 36.5750 -92.9420 121° Southeast 500 575 37,000  Level FlightAware
03:00AM 36.5340 -92.8580 121° Southeast 500 575 37,000  Level FlightAware
03:01AM 36.4920 -92.7720 121° Southeast 500 575 37,000  Level FlightAware
03:02AM 36.4320 -92.6460 121° Southeast 500 575 37,000  Level FlightAware
03:02AM 36.3910 -92.5630 122° Southeast 500 575 37,000  Level FlightAware
03:03AM 36.3510 -92.4790 121° Southeast 500 575 37,000  Level FlightAware
03:04AM 36.3100 -92.3950 121° Southeast 500 575 37,000  Level FlightAware
03:04AM 36.2590 -92.2910 121° Southeast 500 575 37,000  Level FlightAware
03:05AM 36.2190 -92.2070 121° Southeast 500 575 37,000  Level FlightAware
03:06AM 36.1780 -92.1240 121° Southeast 500 575 37,000 -5,100 Level FlightAware
03:07AM 36.0117 -91.7194 121° Southeast 484 557 27,400 -4,260 Descending Memphis Center
03:09AM 35.9017 -91.4514 117° Southeast 461 531 23,300 -2,100 Descending Memphis Center
03:11AM 35.7786 -91.1758 119° Southeast 441 507 19,200 -2,040 Descending Memphis Center
03:12AM 35.7272 -91.0500 117° Southeast 427 491 17,300 -1,860 Descending Memphis Center
03:13AM 35.6819 -90.9397 117° Southeast 417 480 15,500 -1,860 Descending Memphis Center
03:14AM 35.6322 -90.8219 117° Southeast 390 449 13,600 -1,920 Descending Memphis Center
03:15AM 35.5825 -90.7067 118° Southeast 383 441 11,700 -1,440 Descending Memphis Center
03:16AM 35.5350 -90.5969 118° Southeast 374 430 10,800 -720 Descending Memphis Center
03:17AM 35.4869 -90.4897 119° Southeast 349 402 10,300 -660 Descending Memphis Center
03:18AM 35.4497 -90.4028 118° Southeast 305 351 9,500 -960 Descending Memphis Center
03:19AM 35.4119 -90.3189 119° Southeast 283 326 8,400 -1,080 Descending Memphis Center
03:20AM 35.3786 -90.2372 117° Southeast 277 319 7,400 -1,080 Descending Memphis Center
03:21AM 35.3450 -90.1586 118° Southeast 269 310 6,300 -1,140 Descending Memphis Center
03:22AM 35.3094 -90.0797 119° Southeast 269 310 5,200 -1,080 Descending Memphis Center
03:22AM 35.3000 -90.0500 111° Southeast 256 295 4,900 -780 Descending KMEM
03:23AM 35.2667 -89.9833 121° Southeast 221 254 4,200 -780 Descending KMEM
03:24AM 35.2167 -89.9667 165° South 172 198 3,400 -780 Descending KMEM
03:25AM 35.1667 -89.9667 180° South 142 163 2,700 -780 Descending KMEM
03:26AM 35.1333 -89.9667 180° South 143 165 2,000 -780 Descending KMEM
03:27AM 35.1000 -89.9667 180° South 131 151 1,300 -720 Descending KMEM
03:28AM 35.0667 -89.9667 180° South 134 154 600 -720 Descending KMEM
03:31AM 35.0424 -89.9767 180° South  Level Estimated